createdAt,value
2023-04-05T00:01:00.463Z,100044.00
2023-04-05T00:03:29.060Z,100043.91
2023-04-05T00:05:57.135Z,100042.06
2023-04-05T00:08:28.355Z,100040.13
2023-04-05T00:10:56.590Z,100029.84
2023-04-05T00:13:24.451Z,100029.97
2023-04-05T00:15:52.465Z,100040.88
2023-04-05T00:18:23.890Z,100034.75
2023-04-05T00:20:52.527Z,100033.03
2023-04-05T00:23:21.361Z,100028.13
2023-04-05T00:25:50.746Z,100023.97
2023-04-05T00:28:18.620Z,100024.94
2023-04-05T00:30:46.580Z,100025.44
2023-04-05T00:33:14.703Z,100022.13
2023-04-05T00:35:42.768Z,100021.78
2023-04-05T00:38:10.794Z,100016.63
2023-04-05T00:40:39.051Z,100017.59
2023-04-05T00:43:08.479Z,100015.16
2023-04-05T00:45:36.602Z,100016.44
2023-04-05T00:48:06.474Z,100016.31
2023-04-05T00:50:35.620Z,100018.88
2023-04-05T00:53:03.631Z,100024.44
2023-04-05T00:55:33.982Z,100019.91
2023-04-05T00:58:01.916Z,100017.22
2023-04-05T01:00:31.842Z,100015.00
2023-04-05T01:03:02.221Z,100022.88
2023-04-05T01:05:38.713Z,100011.09
2023-04-05T01:08:15.702Z,100025.44
2023-04-05T01:10:47.814Z,100026.91
2023-04-05T01:13:17.664Z,100014.75
2023-04-05T01:15:47.280Z,100013.03
2023-04-05T01:18:15.376Z,100013.03
2023-04-05T01:20:58.579Z,100016.84
2023-04-05T01:23:39.083Z,100010.88
2023-04-05T01:26:39.687Z,100010.22
2023-04-05T01:30:04.007Z,100002.75
2023-04-05T01:32:44.119Z,100005.84
2023-04-05T01:35:19.173Z,100001.56
2023-04-05T01:37:52.043Z,99996.66
2023-04-05T01:40:20.300Z,99999.84
2023-04-05T01:42:48.259Z,100001.09
2023-04-05T01:45:17.519Z,99995.44
2023-04-05T01:47:45.588Z,99985.13
2023-04-05T01:50:14.166Z,99996.91
2023-04-05T01:52:41.970Z,99992.50
2023-04-05T01:55:10.091Z,99993.28
2023-04-05T01:57:39.022Z,99991.56
2023-04-05T02:00:08.175Z,99998.81
2023-04-05T02:02:42.097Z,99997.94
2023-04-05T02:05:10.710Z,99996.25
2023-04-05T02:07:38.511Z,99989.59
2023-04-05T02:10:07.495Z,99996.25
2023-04-05T02:12:35.710Z,99995.16
2023-04-05T02:15:04.056Z,99997.47
2023-04-05T02:17:34.203Z,100003.25
2023-04-05T02:20:06.961Z,100007.31
2023-04-05T02:22:34.837Z,100000.69
2023-04-05T02:25:03.435Z,100002.16
2023-04-05T02:27:31.664Z,99997.97
2023-04-05T02:29:59.567Z,99996.38
2023-04-05T02:32:27.630Z,100007.06
2023-04-05T02:34:55.549Z,100001.28
2023-04-05T02:37:27.176Z,99997.97
2023-04-05T02:39:55.355Z,99994.44
2023-04-05T02:42:23.205Z,99995.28
2023-04-05T02:44:52.293Z,99990.25
2023-04-05T02:47:22.318Z,99993.56
2023-04-05T02:49:59.016Z,99992.84
2023-04-05T02:52:34.218Z,99991.13
2023-04-05T02:55:02.178Z,99994.97
2023-04-05T02:57:32.462Z,100000.50
2023-04-05T03:00:23.459Z,99982.81
2023-04-05T03:02:52.151Z,99988.84
2023-04-05T03:05:22.575Z,99989.47
2023-04-05T03:07:54.676Z,99999.91
2023-04-05T03:10:29.181Z,100000.75
2023-04-05T03:13:04.046Z,99992.88
2023-04-05T03:15:33.396Z,99994.38
2023-04-05T03:18:07.066Z,99993.38
2023-04-05T03:20:40.339Z,99999.78
2023-04-05T03:23:17.331Z,99994.88
2023-04-05T03:25:46.590Z,99997.94
2023-04-05T03:28:18.342Z,99993.88
2023-04-05T03:30:50.475Z,99992.41
2023-04-05T03:33:21.516Z,99983.84
2023-04-05T03:35:52.059Z,99991.22
2023-04-05T03:38:22.214Z,99993.69
2023-04-05T03:41:09.702Z,99983.84
2023-04-05T03:43:37.899Z,99991.22
2023-04-05T03:46:07.294Z,99990.25
2023-04-05T03:48:35.402Z,99996.00
2023-04-05T03:51:03.861Z,99992.69
2023-04-05T03:53:33.403Z,99993.44
2023-04-05T03:56:01.785Z,99998.59
2023-04-05T03:58:41.701Z,100000.28
2023-04-05T04:01:10.664Z,99998.47
2023-04-05T04:03:39.233Z,100002.63
2023-04-05T04:06:08.504Z,100005.66
2023-04-05T04:08:37.801Z,100005.91
2023-04-05T04:11:06.468Z,100014.88
2023-04-05T04:13:38.222Z,100009.09
2023-04-05T04:16:21.785Z,100012.06
2023-04-05T04:19:06.359Z,100011.31
2023-04-05T04:21:48.729Z,100006.63
2023-04-05T04:24:27.421Z,100013.28
2023-04-05T04:27:30.393Z,100010.81
2023-04-05T04:30:22.680Z,100014.00
2023-04-05T04:33:09.824Z,100007.63
2023-04-05T04:35:47.127Z,100001.09
2023-04-05T04:38:34.923Z,100018.41
2023-04-05T04:41:30.072Z,100010.19
2023-04-05T04:44:28.209Z,100011.91
2023-04-05T04:47:21.769Z,100014.72
2023-04-05T04:50:07.376Z,100006.25
2023-04-05T04:52:35.402Z,100020.09
2023-04-05T04:55:04.273Z,100023.53
2023-04-05T04:57:33.647Z,100014.56
2023-04-05T05:00:01.560Z,100021.41
2023-04-05T05:02:31.313Z,100018.84
2023-04-05T05:04:59.368Z,100020.06
2023-04-05T05:07:27.155Z,100017.06
2023-04-05T05:09:55.082Z,100022.09
2023-04-05T05:12:23.513Z,100017.31
2023-04-05T05:14:52.903Z,100033.97
2023-04-05T05:17:24.480Z,100025.44
2023-04-05T05:19:53.696Z,100031.69
2023-04-05T05:22:23.124Z,100038.75
2023-04-05T05:24:50.988Z,100032.59
2023-04-05T05:27:19.078Z,100031.56
2023-04-05T05:29:47.198Z,100034.56
2023-04-05T05:32:17.093Z,100036.88
2023-04-05T05:34:45.525Z,100033.16
2023-04-05T05:37:13.532Z,100043.63
2023-04-05T05:39:41.402Z,100043.25
2023-04-05T05:42:09.299Z,100039.41
2023-04-05T05:44:37.417Z,100036.41
2023-04-05T05:47:05.456Z,100029.34
2023-04-05T05:49:34.852Z,100020.38
2023-04-05T05:52:02.779Z,100027.75
2023-04-05T05:54:30.689Z,100033.78
2023-04-05T05:56:58.994Z,100013.78
2023-04-05T05:59:27.428Z,100019.16
2023-04-05T06:01:55.649Z,100007.25
2023-04-05T06:04:23.653Z,100011.66
2023-04-05T06:06:52.902Z,100015.06
2023-04-05T06:09:21.695Z,100000.63
2023-04-05T06:11:56.393Z,100001.38
2023-04-05T06:14:25.746Z,100012.72
2023-04-05T06:16:53.705Z,100007.25
2023-04-05T06:19:21.657Z,100013.78
2023-04-05T06:21:49.536Z,100008.22
2023-04-05T06:24:18.813Z,100011.75
2023-04-05T06:26:46.631Z,100016.97
2023-04-05T06:29:14.490Z,100006.59
2023-04-05T06:31:43.671Z,100004.56
2023-04-05T06:34:11.658Z,100008.97
2023-04-05T06:36:39.602Z,100014.00
2023-04-05T06:39:08.040Z,100013.53
2023-04-05T06:41:37.274Z,100018.03
2023-04-05T06:44:05.176Z,100010.97
2023-04-05T06:46:33.283Z,100009.25
2023-04-05T06:49:03.764Z,100007.97
2023-04-05T06:51:32.183Z,100015.97
2023-04-05T06:54:00.173Z,100006.31
2023-04-05T06:56:28.208Z,100015.41
2023-04-05T06:58:59.482Z,100013.91
2023-04-05T07:01:27.668Z,100008.78
2023-04-05T07:03:55.723Z,100005.78
2023-04-05T07:06:24.073Z,100005.66
2023-04-05T07:08:52.630Z,100012.81
2023-04-05T07:11:21.456Z,100013.81
2023-04-05T07:13:49.312Z,100023.34
2023-04-05T07:16:23.116Z,100012.94
2023-04-05T07:18:51.888Z,100015.44
2023-04-05T07:21:19.748Z,100007.31
2023-04-05T07:23:47.766Z,100017.16
2023-04-05T07:26:15.692Z,100001.59
2023-04-05T07:28:43.612Z,100005.38
2023-04-05T07:31:11.575Z,100006.44
2023-04-05T07:33:41.180Z,100003.75
2023-04-05T07:36:10.449Z,100004.94
2023-04-05T07:38:38.438Z,99991.16
2023-04-05T07:41:06.323Z,99990.88
2023-04-05T07:43:34.345Z,99985.94
2023-04-05T07:46:03.406Z,99979.13
2023-04-05T07:48:31.725Z,99988.13
2023-04-05T07:51:06.989Z,99986.34
2023-04-05T07:53:35.223Z,99993.34
2023-04-05T07:56:04.979Z,99975.97
2023-04-05T07:58:33.327Z,99979.28
2023-04-05T08:01:01.873Z,99974.03
2023-04-05T08:03:30.184Z,99990.09
2023-04-05T08:05:58.351Z,99972.81
2023-04-05T08:08:27.711Z,99977.34
2023-04-05T08:10:55.694Z,99973.75
2023-04-05T08:13:23.695Z,99981.75
2023-04-05T08:15:51.658Z,99981.22
2023-04-05T08:18:20.228Z,99967.44
2023-04-05T08:20:52.346Z,99969.91
2023-04-05T08:23:20.230Z,99974.44
2023-04-05T08:25:49.605Z,99962.06
2023-04-05T08:28:18.505Z,99945.69
2023-04-05T08:30:47.346Z,99947.22
2023-04-05T08:33:15.571Z,99961.09
2023-04-05T08:35:44.419Z,99936.09
2023-04-05T08:38:12.861Z,99954.81
2023-04-05T08:40:43.496Z,99938.09
2023-04-05T08:43:20.502Z,99942.88
2023-04-05T08:45:51.380Z,99948.09
2023-04-05T08:48:20.656Z,99945.25
2023-04-05T08:50:52.624Z,99942.50
2023-04-05T08:53:21.362Z,99943.38
2023-04-05T08:55:52.095Z,99929.75
2023-04-05T08:58:23.332Z,99931.81
2023-04-05T09:00:52.682Z,99922.59
2023-04-05T09:03:24.199Z,99929.50
2023-04-05T09:05:53.319Z,99948.88
2023-04-05T09:08:22.229Z,99937.53
2023-04-05T09:10:51.949Z,99925.59
2023-04-05T09:13:21.217Z,99940.34
2023-04-05T09:15:50.182Z,99929.41
2023-04-05T09:18:26.258Z,99919.91
2023-04-05T09:20:58.732Z,99925.13
2023-04-05T09:23:26.723Z,99932.75
2023-04-05T09:25:54.646Z,99925.63
2023-04-05T09:28:23.987Z,99935.63
2023-04-05T09:30:51.805Z,99931.31
2023-04-05T09:33:22.118Z,99929.16
2023-04-05T09:35:52.197Z,99920.09
2023-04-05T09:38:41.418Z,99923.44
2023-04-05T09:41:10.649Z,99914.34
2023-04-05T09:43:41.418Z,99940.41
2023-04-05T09:46:29.821Z,99917.59
2023-04-05T09:48:58.111Z,99939.13
2023-04-05T09:51:33.786Z,99919.09
2023-04-05T09:54:03.499Z,99905.22
2023-04-05T09:56:32.797Z,99921.53
2023-04-05T09:59:04.552Z,99914.38
2023-04-05T10:01:33.289Z,99912.44
2023-04-05T10:04:02.617Z,99925.19
2023-04-05T10:06:37.621Z,99915.59
2023-04-05T10:09:06.274Z,99923.41
2023-04-05T10:11:35.164Z,99906.22
2023-04-05T10:14:07.229Z,99900.66
2023-04-05T10:16:39.579Z,99907.50
2023-04-05T10:19:15.435Z,99911.69
2023-04-05T10:21:46.114Z,99898.34
2023-04-05T10:24:19.850Z,99905.09
2023-04-05T10:27:00.950Z,99907.75
2023-04-05T10:29:39.264Z,99902.97
2023-04-05T10:32:14.913Z,99889.25
2023-04-05T10:34:45.896Z,99886.94
2023-04-05T10:37:26.054Z,99869.84
2023-04-05T10:39:54.824Z,99886.78
2023-04-05T10:42:28.589Z,99868.38
2023-04-05T10:45:04.657Z,99875.06
2023-04-05T10:47:33.565Z,99876.44
2023-04-05T10:50:05.295Z,99871.31
2023-04-05T10:52:35.361Z,99885.56
2023-04-05T10:55:04.642Z,99871.97
2023-04-05T10:57:33.662Z,99877.38
2023-04-05T11:00:03.531Z,99863.88
2023-04-05T11:02:32.106Z,99888.16
2023-04-05T11:05:05.295Z,99868.75
2023-04-05T11:07:44.255Z,99864.03
2023-04-05T11:10:17.961Z,99848.38
2023-04-05T11:13:05.644Z,99863.09
2023-04-05T11:15:36.321Z,99864.28
2023-04-05T11:18:09.220Z,99856.28
2023-04-05T11:20:48.628Z,99846.66
2023-04-05T11:23:18.819Z,99853.31
2023-04-05T11:25:54.145Z,99856.09
2023-04-05T11:28:26.597Z,99852.50
2023-04-05T11:30:58.680Z,99863.66
2023-04-05T11:33:56.753Z,99857.84
2023-04-05T11:36:33.826Z,99852.75
2023-04-05T11:39:29.714Z,99849.41
2023-04-05T11:42:03.598Z,99858.31
2023-04-05T11:44:42.014Z,99853.94
2023-04-05T11:47:11.951Z,99846.22
2023-04-05T11:49:40.474Z,99845.72
2023-04-05T11:52:12.970Z,99846.72
2023-04-05T11:54:46.035Z,99834.66
2023-04-05T11:57:17.216Z,99835.09
2023-04-05T11:59:45.520Z,99828.19
2023-04-05T12:02:14.715Z,99830.19
2023-04-05T12:04:42.592Z,99834.25
2023-04-05T12:07:15.989Z,99837.84
2023-04-05T12:10:07.039Z,99844.88
2023-04-05T12:12:39.630Z,99826.25
2023-04-05T12:15:10.764Z,99822.44
2023-04-05T12:17:49.445Z,99825.25
2023-04-05T12:20:19.320Z,99836.91
2023-04-05T12:22:49.505Z,99816.44
2023-04-05T12:25:18.871Z,99826.66
2023-04-05T12:27:47.354Z,99821.22
2023-04-05T12:30:17.559Z,99821.69
2023-04-05T12:32:48.297Z,99812.03
2023-04-05T12:35:20.957Z,99804.66
2023-04-05T12:37:50.879Z,99798.31
2023-04-05T12:40:22.087Z,99804.72
2023-04-05T12:42:50.505Z,99780.56
2023-04-05T12:45:19.235Z,99801.22
2023-04-05T12:47:53.820Z,99799.19
2023-04-05T12:50:28.182Z,99795.84
2023-04-05T12:52:57.805Z,99799.56
2023-04-05T12:55:26.617Z,99789.25
2023-04-05T12:57:55.895Z,99786.91
2023-04-05T13:00:26.669Z,99786.19
2023-04-05T13:02:57.161Z,99798.59
2023-04-05T13:05:26.607Z,99767.63
2023-04-05T13:07:54.455Z,99789.91
2023-04-05T13:10:23.984Z,99771.09
2023-04-05T13:12:51.895Z,99772.53
2023-04-05T13:15:20.182Z,99778.50
2023-04-05T13:17:50.333Z,99768.88
2023-04-05T13:20:20.161Z,99772.66
2023-04-05T13:22:48.609Z,99787.13
2023-04-05T13:25:16.793Z,99766.38
2023-04-05T13:27:44.763Z,99768.28
2023-04-05T13:30:13.161Z,99759.25
2023-04-05T13:32:41.491Z,99746.16
2023-04-05T13:35:10.154Z,99765.09
2023-04-05T13:37:39.408Z,99769.75
2023-04-05T13:40:08.628Z,99770.78
2023-04-05T13:42:36.767Z,99767.56
2023-04-05T13:45:05.190Z,99767.03
2023-04-05T13:47:33.199Z,99753.78
2023-04-05T13:50:01.240Z,99748.69
2023-04-05T13:52:29.287Z,99755.88
2023-04-05T13:55:01.900Z,99751.88
2023-04-05T13:57:32.528Z,99745.88
2023-04-05T14:00:00.655Z,99744.84
2023-04-05T14:02:29.038Z,99747.91
2023-04-05T14:04:57.216Z,99753.75
2023-04-05T14:07:25.688Z,99732.78
2023-04-05T14:09:53.542Z,99747.69
2023-04-05T14:12:22.941Z,99744.66
2023-04-05T14:14:50.884Z,99748.69
2023-04-05T14:17:18.992Z,99744.47
2023-04-05T14:19:46.985Z,99724.81
2023-04-05T14:22:15.668Z,99732.66
2023-04-05T14:24:43.826Z,99726.78
2023-04-05T14:27:11.940Z,99733.16
2023-04-05T14:29:41.394Z,99726.03
2023-04-05T14:32:09.497Z,99733.47
2023-04-05T14:34:37.776Z,99720.41
2023-04-05T14:37:06.686Z,99723.34
2023-04-05T14:39:34.907Z,99730.84
2023-04-05T14:42:03.220Z,99723.47
2023-04-05T14:44:31.537Z,99727.03
2023-04-05T14:47:01.140Z,99738.75
2023-04-05T14:49:29.140Z,99735.81
2023-04-05T14:51:57.207Z,99746.00
2023-04-05T14:54:25.284Z,99738.44
2023-04-05T14:56:53.224Z,99736.84
2023-04-05T14:59:21.373Z,99735.72
2023-04-05T15:01:49.491Z,99740.19
2023-04-05T15:04:18.996Z,99730.66
2023-04-05T15:06:46.973Z,99732.59
2023-04-05T15:09:15.346Z,99758.19
2023-04-05T15:11:43.565Z,99743.16
2023-04-05T15:14:21.060Z,99745.72
2023-04-05T15:16:52.847Z,99757.50
2023-04-05T15:19:22.202Z,99749.84
2023-04-05T15:21:50.350Z,99755.72
2023-04-05T15:24:18.339Z,99743.97
2023-04-05T15:26:46.414Z,99745.81
2023-04-05T15:29:14.510Z,99747.69
2023-04-05T15:31:42.712Z,99736.53
2023-04-05T15:34:10.752Z,99750.03
2023-04-05T15:36:40.686Z,99756.81
2023-04-05T15:39:08.649Z,99759.75
2023-04-05T15:41:36.710Z,99770.28
2023-04-05T15:44:04.942Z,99779.22
2023-04-05T15:46:33.118Z,99772.28
2023-04-05T15:49:01.610Z,99759.88
2023-04-05T15:51:30.262Z,99768.97
2023-04-05T15:53:59.770Z,99766.25
2023-04-05T15:56:27.844Z,99765.16
2023-04-05T15:58:56.051Z,99773.81
2023-04-05T16:01:24.314Z,99777.22
2023-04-05T16:03:52.478Z,99781.06
2023-04-05T16:06:22.034Z,99779.13
2023-04-05T16:08:50.024Z,99781.53
2023-04-05T16:11:19.435Z,99775.53
2023-04-05T16:13:47.520Z,99779.47
2023-04-05T16:16:24.280Z,99772.81
2023-04-05T16:19:00.978Z,99777.56
2023-04-05T16:21:29.234Z,99785.44
2023-04-05T16:24:00.996Z,99756.16
2023-04-05T16:26:33.114Z,99787.91
2023-04-05T16:29:01.703Z,99780.31
2023-04-05T16:31:30.321Z,99778.72
2023-04-05T16:33:58.458Z,99781.28
2023-04-05T16:36:27.547Z,99796.34
2023-04-05T16:38:55.612Z,99793.63
2023-04-05T16:41:23.688Z,99790.34
2023-04-05T16:43:53.995Z,99797.56
2023-04-05T16:46:22.051Z,99796.38
2023-04-05T16:48:50.081Z,99807.25
2023-04-05T16:51:18.149Z,99811.13
2023-04-05T16:53:46.168Z,99808.53
2023-04-05T16:56:14.339Z,99811.81
2023-04-05T16:58:42.392Z,99815.47
2023-04-05T17:01:11.838Z,99822.25
2023-04-05T17:03:42.137Z,99822.22
2023-04-05T17:06:11.154Z,99832.38
2023-04-05T17:08:39.231Z,99843.28
2023-04-05T17:11:07.666Z,99836.03
2023-04-05T17:13:35.665Z,99842.84
2023-04-05T17:16:03.980Z,99840.75
2023-04-05T17:18:33.487Z,99845.28
2023-04-05T17:21:01.482Z,99844.09
2023-04-05T17:23:29.476Z,99845.50
2023-04-05T17:25:57.482Z,99850.84
2023-04-05T17:28:26.720Z,99847.91
2023-04-05T17:30:54.801Z,99848.28
2023-04-05T17:33:23.392Z,99852.78
2023-04-05T17:35:52.998Z,99849.97
2023-04-05T17:38:21.168Z,99860.25
2023-04-05T17:40:49.370Z,99856.53
2023-04-05T17:43:17.324Z,99861.16
2023-04-05T17:45:45.634Z,99864.31
2023-04-05T17:48:13.774Z,99867.34
2023-04-05T17:50:41.992Z,99863.72
2023-04-05T17:53:11.654Z,99869.38
2023-04-05T17:55:39.877Z,99871.63
2023-04-05T17:58:07.896Z,99873.78
2023-04-05T18:00:36.102Z,99865.28
2023-04-05T18:03:07.604Z,99881.63
2023-04-05T18:05:36.661Z,99882.16
2023-04-05T18:08:04.740Z,99886.97
2023-04-05T18:10:34.251Z,99886.66
2023-04-05T18:13:05.145Z,99882.31
2023-04-05T18:15:33.526Z,99890.28
2023-04-05T18:18:01.842Z,99896.88
2023-04-05T18:20:29.854Z,99899.19
2023-04-05T18:22:59.699Z,99897.34
2023-04-05T18:25:27.744Z,99899.91
2023-04-05T18:27:57.188Z,99895.72
2023-04-05T18:30:25.239Z,99900.59
2023-04-05T18:32:53.289Z,99909.41
2023-04-05T18:35:22.065Z,99893.25
2023-04-05T18:37:50.129Z,99910.78
2023-04-05T18:40:18.705Z,99907.28
2023-04-05T18:42:47.014Z,99905.34
2023-04-05T18:45:16.732Z,99903.47
2023-04-05T18:47:44.779Z,99915.78
2023-04-05T18:50:12.908Z,99913.13
2023-04-05T18:52:41.126Z,99918.94
2023-04-05T18:55:09.597Z,99914.59
2023-04-05T18:57:37.573Z,99913.50
2023-04-05T19:00:07.155Z,99923.41
2023-04-05T19:02:36.772Z,99928.97
2023-04-05T19:05:05.167Z,99926.16
2023-04-05T19:07:33.192Z,99924.19
2023-04-05T19:10:01.260Z,99925.66
2023-04-05T19:12:29.248Z,99920.53
2023-04-05T19:14:57.295Z,99926.25
2023-04-05T19:17:25.500Z,99927.03
2023-04-05T19:19:54.887Z,99923.59
2023-04-05T19:22:22.888Z,99923.44
2023-04-05T19:24:50.862Z,99925.06
2023-04-05T19:27:18.928Z,99920.09
2023-04-05T19:29:47.031Z,99931.44
2023-04-05T19:32:15.563Z,99928.66
2023-04-05T19:34:43.791Z,99931.72
2023-04-05T19:37:13.496Z,99935.72
2023-04-05T19:39:42.440Z,99933.66
2023-04-05T19:42:10.410Z,99933.50
2023-04-05T19:44:49.710Z,99924.13
2023-04-05T19:47:19.693Z,99934.88
2023-04-05T19:49:50.440Z,99932.97
2023-04-05T19:52:39.360Z,99936.03
2023-04-05T19:55:28.195Z,99932.47
2023-04-05T19:57:56.842Z,99932.28
2023-04-05T20:00:32.531Z,99930.41
2023-04-05T20:03:01.385Z,99925.09
2023-04-05T20:06:07.576Z,99933.88
2023-04-05T20:08:38.976Z,99931.22
2023-04-05T20:11:09.018Z,99929.34
2023-04-05T20:13:43.239Z,99925.16
2023-04-05T20:16:13.294Z,99920.97
2023-04-05T20:18:45.018Z,99917.72
2023-04-05T20:21:13.452Z,99920.03
2023-04-05T20:23:44.690Z,99916.59
2023-04-05T20:26:16.474Z,99902.00
2023-04-05T20:28:53.527Z,99910.38
2023-04-05T20:31:23.342Z,99920.25
2023-04-05T20:33:54.599Z,99919.22
2023-04-05T20:36:24.672Z,99914.75
2023-04-05T20:38:54.150Z,99914.00
2023-04-05T20:41:22.306Z,99918.59
2023-04-05T20:43:50.335Z,99912.53
2023-04-05T20:46:18.504Z,99910.72
2023-04-05T20:48:46.898Z,99909.78
2023-04-05T20:51:16.343Z,99909.50
2023-04-05T20:53:44.390Z,99911.78
2023-04-05T20:56:13.820Z,99911.78
2023-04-05T20:58:42.344Z,99914.09
2023-04-05T21:01:11.571Z,99909.72
2023-04-05T21:03:41.802Z,99912.97
2023-04-05T21:06:11.275Z,99878.97
2023-04-05T21:08:41.087Z,99914.66
2023-04-05T21:11:10.684Z,99921.13
2023-04-05T21:13:41.558Z,99918.66
2023-04-05T21:16:09.834Z,99915.25
2023-04-05T21:18:37.972Z,99915.06
2023-04-05T21:21:08.345Z,99918.19
2023-04-05T21:23:36.353Z,99915.47
2023-04-05T21:26:06.062Z,99911.19
2023-04-05T21:28:34.269Z,99919.53
2023-04-05T21:31:03.600Z,99913.16
2023-04-05T21:33:31.719Z,99909.44
2023-04-05T21:35:59.791Z,99918.56
2023-04-05T21:38:27.780Z,99906.78
2023-04-05T21:40:56.383Z,99913.53
2023-04-05T21:43:24.452Z,99914.38
2023-04-05T21:45:52.993Z,99910.09
2023-04-05T21:48:24.847Z,99912.78
2023-04-05T21:50:53.053Z,99907.63
2023-04-05T21:53:21.137Z,99917.16
2023-04-05T21:55:49.338Z,99908.81
2023-04-05T21:58:18.621Z,99912.03
2023-04-05T22:00:46.665Z,99914.59
2023-04-05T22:03:14.683Z,99913.84
2023-04-05T22:05:44.137Z,99914.09
2023-04-05T22:08:12.188Z,99905.06
2023-04-05T22:10:40.226Z,99909.91
2023-04-05T22:13:08.259Z,99911.81
2023-04-05T22:15:36.277Z,99918.66
2023-04-05T22:18:05.536Z,99911.06
2023-04-05T22:20:33.702Z,99909.91
2023-04-05T22:23:03.204Z,99910.69
2023-04-05T22:25:31.557Z,99915.47
2023-04-05T22:28:00.848Z,99920.41
2023-04-05T22:30:40.829Z,99909.75
2023-04-05T22:33:12.705Z,99920.56
2023-04-05T22:35:41.370Z,99913.91
2023-04-05T22:38:11.753Z,99915.38
2023-04-05T22:40:39.842Z,99918.50
2023-04-05T22:43:07.865Z,99903.28
2023-04-05T22:45:35.973Z,99913.75
2023-04-05T22:48:04.251Z,99907.28
2023-04-05T22:50:32.844Z,99915.28
2023-04-05T22:53:00.797Z,99914.88
2023-04-05T22:55:30.654Z,99906.34
2023-04-05T22:57:58.651Z,99914.88
2023-04-05T23:00:26.757Z,99917.81
2023-04-05T23:02:54.838Z,99916.72
2023-04-05T23:05:22.933Z,99908.25
2023-04-05T23:07:50.862Z,99911.50
2023-04-05T23:10:19.446Z,99905.50
2023-04-05T23:12:49.425Z,99907.78
2023-04-05T23:15:17.691Z,99905.59
2023-04-05T23:17:45.716Z,99903.88
2023-04-05T23:20:14.038Z,99898.09
2023-04-05T23:22:42.402Z,99905.88
2023-04-05T23:25:11.041Z,99908.03
2023-04-05T23:27:39.108Z,99908.72
2023-04-05T23:30:09.902Z,99904.91
2023-04-05T23:32:37.891Z,99909.94
2023-04-05T23:35:06.713Z,99912.22
2023-04-05T23:37:34.793Z,99902.84
2023-04-05T23:40:02.809Z,99910.63
2023-04-05T23:42:30.896Z,99898.75
2023-04-05T23:45:00.222Z,99900.28
2023-04-05T23:47:29.677Z,99902.94
2023-04-05T23:49:57.737Z,99892.13
2023-04-05T23:52:25.843Z,99886.34
2023-04-05T23:54:53.871Z,99886.59
2023-04-05T23:57:22.153Z,99890.50
2023-04-05T23:59:51.041Z,99886.81
